Oak Harbor, Washington
Current Conditions -  °F | °C
As of 7:56 AM on Wednesday 28 Jan 2015 (Local Time) from KNUW Reporting Station
Overcast Overcast  
Wind Chill: 47°   Ceiling: 1900
Heat Index: 47°   Visibility: 10mi
Dew Point: 42°   Wind: 3mph
Humidity: 83%   Direction: 340°NNW
Pressure: 30.38"   Gusts: NA
Location:  48.29°N, 122.64°W
Report Text: KNUW 281556Z 34003KT 10SM BKN019 OVC028 08/06 A3038 RMK AO2 SLP290 T00830056 VISNO E $
Loading
Personal Weather Stations






























Interactive Weather Map New forecast layout! Learn more

10-Day Weather Forecast

Advertisements
Track Severe Weather on mobile